Time;durP1;ratioP1;P1;durP2;ratioP2;P2;SDS_P1;SDS_P2;PMS_P1;PMS_P2;Temp;Humidity;BMP_temperature;BMP_pressure;BME280_temperature;BME280_humidity;BME280_pressure;Samples;Min_cycle;Max_cycle;Signal;HPM_P1;HPM_P2
2021/04/22 00:02:25;;;;;;;20.67;3.22;;;8.50;62.60;;;8.95;49.94;101201.56;4991462;28;20046;-82
2021/04/22 00:04:52;;;;;;;16.00;3.28;;;8.50;62.00;;;8.87;50.81;101201.50;4991568;28;20473;-82
2021/04/22 00:07:20;;;;;;;18.45;3.78;;;8.50;62.70;;;8.97;50.15;101199.56;4992403;28;20042;-81
2021/04/22 00:09:49;;;;;;;20.98;3.75;;;8.50;62.00;;;8.93;50.56;101203.59;4992437;28;20054;-82
2021/04/22 00:12:16;;;;;;;19.98;3.70;;;8.40;63.10;;;8.94;50.04;101209.88;4992163;28;20133;-81
2021/04/22 00:14:43;;;;;;;25.33;3.65;;;8.40;62.70;;;8.80;50.20;101208.56;4991741;28;20078;-82
2021/04/22 00:17:11;;;;;;;19.23;3.90;;;8.40;62.50;;;8.80;50.64;101209.41;4992491;28;20128;-82
2021/04/22 00:19:38;;;;;;;19.67;3.78;;;8.30;62.70;;;8.83;50.07;101202.81;4992666;28;20073;-82
2021/04/22 00:22:05;;;;;;;22.00;3.75;;;8.30;62.60;;;8.87;50.51;101201.50;4992018;28;20042;-82
2021/04/22 00:24:32;;;;;;;16.35;3.33;;;8.30;63.20;;;8.80;51.11;101204.00;4991654;28;20078;-81
2021/04/22 00:27:00;;;;;;;16.48;3.38;;;8.40;63.50;;;8.66;51.69;101209.09;4991953;28;20487;-81
2021/04/22 00:29:27;;;;;;;21.13;3.30;;;8.20;64.10;;;8.57;52.00;101214.47;4991678;28;20049;-81
2021/04/22 00:31:53;;;;;;;18.65;3.63;;;8.20;64.00;;;8.47;51.82;101219.09;4991864;28;20164;-81
2021/04/22 00:34:20;;;;;;;16.30;3.75;;;8.10;64.40;;;8.47;52.21;101219.09;4990986;28;20082;-81
2021/04/22 00:36:47;;;;;;;17.40;4.35;;;8.10;64.40;;;8.45;52.28;101210.25;4991395;28;20046;-81
2021/04/22 00:39:13;;;;;;;27.38;4.28;;;8.10;64.40;;;8.42;52.48;101221.44;4991896;28;20046;-81
2021/04/22 00:41:40;;;;;;;13.95;3.58;;;8.10;65.50;;;8.31;53.19;101221.59;4991977;28;20054;-82
2021/04/22 00:44:09;;;;;;;22.30;3.40;;;7.90;65.60;;;8.17;53.91;101229.25;4990742;28;20046;-81
2021/04/22 00:46:37;;;;;;;19.48;3.63;;;7.90;66.30;;;8.07;53.15;101227.59;4991894;28;20073;-81
2021/04/22 00:49:05;;;;;;;16.67;3.30;;;7.80;66.00;;;8.01;53.84;101229.03;4990635;28;20050;-81
2021/04/22 00:51:32;;;;;;;19.77;3.92;;;7.80;66.50;;;7.95;54.67;101229.66;4991749;28;20046;-81
2021/04/22 00:54:00;;;;;;;18.13;3.30;;;7.70;66.90;;;7.85;54.83;101234.28;4989393;28;20052;-82
2021/04/22 00:56:28;;;;;;;13.10;3.25;;;7.60;67.20;;;7.91;54.03;101233.66;4990477;28;20054;-81
2021/04/22 00:58:55;;;;;;;17.48;3.65;;;7.60;66.90;;;7.80;54.15;101232.84;4991918;28;20081;-82
2021/04/22 01:01:24;;;;;;;12.23;3.25;;;7.50;67.30;;;7.77;54.76;101233.16;4991261;28;20042;-82
2021/04/22 01:03:51;;;;;;;12.73;3.28;;;7.50;67.30;;;7.76;54.75;101236.84;4990648;28;20046;-82
2021/04/22 01:06:19;;;;;;;22.30;3.63;;;7.40;67.80;;;7.68;54.76;101242.16;4990534;28;20404;-81
2021/04/22 01:08:46;;;;;;;16.17;3.90;;;7.40;67.90;;;7.62;55.04;101230.06;4991178;28;20077;-81
2021/04/22 01:11:14;;;;;;;12.18;2.90;;;7.30;68.30;;;7.57;55.27;101236.91;4991416;28;20082;-82
2021/04/22 01:13:41;;;;;;;19.45;3.47;;;7.30;68.50;;;7.56;55.38;101236.06;4990842;28;20057;-81
2021/04/22 01:16:07;;;;;;;13.25;3.63;;;7.20;68.60;;;7.55;55.58;101234.34;4991600;28;20105;-82
2021/04/22 01:18:35;;;;;;;14.82;3.60;;;7.10;68.50;;;7.50;55.78;101236.66;4992720;28;20456;-81
2021/04/22 01:21:03;;;;;;;19.13;3.78;;;7.10;69.20;;;7.47;55.86;101241.53;4991416;28;20042;-81
2021/04/22 01:23:31;;;;;;;23.70;4.50;;;7.10;69.10;;;7.49;55.70;101251.19;4990735;28;20133;-82
2021/04/22 01:25:57;;;;;;;15.55;3.00;;;7.00;69.10;;;7.46;56.20;101247.94;4991862;28;20054;-81
2021/04/22 01:28:26;;;;;;;13.85;4.05;;;7.00;69.50;;;7.38;56.00;101249.50;4991653;28;20483;-81
2021/04/22 01:30:55;;;;;;;12.82;3.30;;;7.00;69.80;;;7.31;56.52;101255.66;4991198;28;20050;-82
2021/04/22 01:33:26;;;;;;;17.58;3.67;;;6.90;70.00;;;7.20;56.63;101249.41;4990728;28;20134;-82
2021/04/22 01:35:56;;;;;;;14.25;3.65;;;7.00;70.00;;;7.23;56.71;101250.97;4991365;28;20046;-81
2021/04/22 01:38:25;;;;;;;17.17;3.38;;;6.90;70.10;;;7.24;56.62;101252.69;4991053;28;20050;-82
2021/04/22 01:40:53;;;;;;;15.48;3.17;;;6.90;70.20;;;7.22;56.53;101251.97;4991160;28;20101;-82
2021/04/22 01:43:20;;;;;;;21.63;3.70;;;6.90;70.30;;;7.20;56.81;101244.00;4990765;28;20458;-81
2021/04/22 01:45:47;;;;;;;17.75;3.50;;;6.80;70.50;;;7.15;57.13;101253.53;4991744;28;20082;-82
2021/04/22 01:48:14;;;;;;;19.27;3.15;;;6.80;70.80;;;7.11;57.11;101252.97;4990675;28;20074;-81
2021/04/22 01:50:41;;;;;;;20.88;3.42;;;6.70;70.70;;;7.04;57.07;101252.72;4991286;28;20297;-81
2021/04/22 01:53:09;;;;;;;17.23;3.50;;;6.70;70.80;;;7.08;57.07;101252.41;4990535;28;20121;-82
2021/04/22 01:55:38;;;;;;;20.92;3.20;;;6.70;70.90;;;7.04;57.20;101249.13;4991351;28;20557;-81
2021/04/22 01:58:08;;;;;;;18.67;2.90;;;6.70;70.90;;;6.99;56.98;101249.56;4991217;28;20557;-81
2021/04/22 02:00:38;;;;;;;14.60;3.15;;;6.70;71.30;;;7.05;57.57;101256.25;4990727;28;20147;-82
2021/04/22 02:03:07;;;;;;;13.45;2.80;;;6.60;71.20;;;6.97;57.56;101259.69;4990062;28;20050;-81
2021/04/22 02:05:34;;;;;;;16.23;3.20;;;6.60;71.40;;;6.92;57.67;101259.25;4991101;28;20113;-81
2021/04/22 02:08:01;;;;;;;17.83;3.15;;;6.60;71.40;;;6.92;57.52;101259.25;4991370;28;20096;-81
2021/04/22 02:10:28;;;;;;;12.93;3.05;;;6.60;71.40;;;6.92;57.42;101267.38;4991241;28;20046;-82
2021/04/22 02:12:55;;;;;;;23.45;3.45;;;6.50;71.50;;;6.94;57.36;101268.06;4990786;28;20118;-81
2021/04/22 02:15:26;;;;;;;19.63;3.78;;;6.50;71.30;;;6.96;57.74;101276.91;4983302;28;20081;-82
2021/04/22 02:17:53;;;;;;;18.38;3.63;;;6.50;71.50;;;6.96;57.37;101274.19;4984976;28;20126;-82
2021/04/22 02:20:21;;;;;;;23.90;3.88;;;6.50;71.40;;;7.00;57.30;101275.63;4984186;28;20821;-82
2021/04/22 02:22:49;;;;;;;22.45;3.70;;;6.50;71.40;;;6.94;57.69;101276.19;4993990;28;20125;-82
2021/04/22 02:25:18;;;;;;;18.50;3.92;;;6.50;71.50;;;6.91;57.71;101273.78;4994486;28;20046;-82
2021/04/22 02:27:45;;;;;;;22.13;3.70;;;6.50;71.60;;;6.88;57.28;101265.09;4994197;28;20384;-81
2021/04/22 02:30:17;;;;;;;20.52;4.03;;;6.50;71.50;;;6.87;57.48;101275.03;4993205;28;20054;-81
2021/04/22 02:32:45;;;;;;;17.65;3.80;;;6.50;71.50;;;6.82;57.57;101285.47;4987033;28;20070;-81
2021/04/22 02:35:15;;;;;;;14.40;3.67;;;6.50;71.70;;;6.83;57.68;101281.75;4987528;28;20133;-82
2021/04/22 02:37:42;;;;;;;18.13;3.95;;;6.50;71.60;;;6.83;57.81;101287.16;4987819;28;20066;-81
2021/04/22 02:40:12;;;;;;;21.23;3.53;;;6.50;71.70;;;6.83;57.01;101287.16;4994092;28;20133;-82
2021/04/22 02:42:39;;;;;;;21.63;4.10;;;6.50;71.60;;;6.84;57.63;101283.47;4987027;28;20284;-82
2021/04/22 02:45:08;;;;;;;18.30;3.55;;;6.50;71.90;;;6.82;58.60;101288.16;4993165;28;20046;-82
2021/04/22 02:47:36;;;;;;;18.08;3.60;;;6.50;72.30;;;6.79;57.98;101285.72;4987792;28;20074;-82
2021/04/22 02:50:07;;;;;;;20.30;4.07;;;6.50;72.40;;;6.82;58.33;101286.31;4992785;28;20058;-82
2021/04/22 02:52:34;;;;;;;20.85;4.13;;;6.50;72.10;;;6.83;58.44;101292.56;4987550;28;20092;-81
2021/04/22 02:55:01;;;;;;;14.85;3.58;;;6.50;72.20;;;6.86;57.97;101284.19;4993755;28;20046;-82
2021/04/22 02:57:28;;;;;;;23.27;4.57;;;6.50;72.20;;;6.80;58.11;101290.16;4994174;28;20062;-81
2021/04/22 02:59:54;;;;;;;17.60;4.35;;;6.50;72.40;;;6.74;58.14;101293.41;4993933;28;20501;-82
2021/04/22 03:02:21;;;;;;;28.98;4.50;;;6.50;72.50;;;6.78;57.82;101295.72;4993890;28;20121;-82
2021/04/22 03:04:48;;;;;;;20.98;4.85;;;6.40;72.00;;;6.74;57.81;101298.81;4992862;28;20046;-82
2021/04/22 03:07:15;;;;;;;17.35;4.07;;;6.40;72.20;;;6.69;58.17;101287.59;4994346;28;20452;-82
2021/04/22 03:09:42;;;;;;;20.63;4.60;;;6.40;72.40;;;6.70;58.68;101294.69;4993891;28;20050;-82
2021/04/22 03:12:10;;;;;;;13.43;3.90;;;6.30;72.60;;;6.60;58.81;101300.94;4993735;28;20081;-82
2021/04/22 03:14:37;;;;;;;17.73;4.07;;;6.30;73.00;;;6.55;59.14;101300.50;4993069;28;20097;-81
2021/04/22 03:17:04;;;;;;;19.00;4.45;;;6.30;73.10;;;6.59;58.87;101301.09;4994136;28;20046;-82
2021/04/22 03:19:30;;;;;;;22.52;4.53;;;6.20;73.10;;;6.56;58.54;101306.75;4993766;28;20066;-82
2021/04/22 03:21:58;;;;;;;17.75;4.25;;;6.20;73.20;;;6.51;58.92;101299.09;4993764;28;20570;-82
2021/04/22 03:24:26;;;;;;;19.58;4.28;;;6.20;73.10;;;6.59;58.72;101301.94;4992363;28;20177;-82
2021/04/22 03:26:53;;;;;;;18.27;4.70;;;6.20;73.00;;;6.55;58.61;101303.22;4993805;28;20412;-82
2021/04/22 03:29:20;;;;;;;18.45;4.18;;;6.20;73.20;;;6.50;58.99;101301.91;4993553;28;20047;-82
2021/04/22 03:31:46;;;;;;;20.90;4.13;;;6.20;73.20;;;6.55;59.20;101300.50;4993973;28;20411;-82
2021/04/22 03:34:13;;;;;;;20.88;4.65;;;6.10;73.60;;;6.44;59.42;101308.72;4992927;28;20088;-82
2021/04/22 03:36:40;;;;;;;18.33;4.75;;;6.10;73.50;;;6.43;59.41;101313.25;4987897;28;20406;-82
2021/04/22 03:39:08;;;;;;;25.33;4.35;;;6.10;73.80;;;6.38;59.62;101309.28;4992481;28;20572;-82
2021/04/22 03:41:36;;;;;;;16.67;3.83;;;6.00;73.90;;;6.36;59.67;101316.66;4993614;28;20050;-82
2021/04/22 03:44:03;;;;;;;24.23;4.95;;;6.00;73.90;;;6.31;59.91;101317.09;4991944;28;20050;-82
2021/04/22 03:46:30;;;;;;;28.00;5.75;;;6.00;74.00;;;6.26;59.56;101308.53;4993519;28;20485;-81
2021/04/22 03:48:57;;;;;;;18.75;5.05;;;6.00;74.00;;;6.32;59.88;101304.41;4993769;28;20073;-82
2021/04/22 03:51:24;;;;;;;21.25;4.68;;;6.00;74.20;;;6.18;60.12;101311.91;4991945;28;20078;-82
2021/04/22 03:53:50;;;;;;;25.88;5.22;;;5.90;74.30;;;6.26;60.18;101309.41;4992619;28;20073;-82
2021/04/22 03:56:17;;;;;;;18.58;4.82;;;5.90;74.30;;;6.25;59.91;101304.97;4993432;28;20046;-82
2021/04/22 03:58:45;;;;;;;19.38;4.63;;;5.90;74.40;;;6.23;59.90;101298.84;4993313;28;20073;-82
2021/04/22 04:01:12;;;;;;;19.20;4.10;;;5.80;74.50;;;6.24;60.16;101308.69;4992739;28;20057;-82
2021/04/22 04:03:39;;;;;;;23.27;4.35;;;5.80;74.80;;;6.15;60.12;101304.09;4992604;28;20076;-81
2021/04/22 04:06:06;;;;;;;15.82;4.15;;;5.90;74.90;;;6.19;59.94;101312.78;4993568;28;20510;-81
2021/04/22 04:08:32;;;;;;;20.67;5.60;;;5.70;75.00;;;6.15;59.81;101308.63;4993083;28;20142;-82
2021/04/22 04:10:59;;;;;;;16.70;4.90;;;5.70;74.80;;;6.15;60.13;101314.91;4993337;28;20122;-82
2021/04/22 04:13:26;;;;;;;23.13;3.90;;;5.70;75.00;;;6.06;60.31;101310.31;4992663;28;20049;-81
2021/04/22 04:15:54;;;;;;;21.00;4.60;;;5.70;75.20;;;5.99;60.30;101309.13;4993694;28;20058;-82
2021/04/22 04:18:22;;;;;;;12.38;4.13;;;5.70;75.40;;;5.98;60.43;101312.84;4993165;28;20438;-82
2021/04/22 04:20:49;;;;;;;16.35;4.47;;;5.70;75.40;;;6.02;60.26;101314.28;4992651;28;20089;-81
2021/04/22 04:23:16;;;;;;;17.27;4.25;;;5.60;75.60;;;5.96;60.65;101312.09;4992132;28;20133;-81
2021/04/22 04:25:43;;;;;;;16.90;4.78;;;5.70;75.90;;;5.92;61.00;101318.72;4992710;28;20077;-84
2021/04/22 04:28:10;;;;;;;18.55;4.07;;;5.70;75.50;;;5.96;60.90;101323.78;4993064;28;20053;-82
2021/04/22 04:30:37;;;;;;;21.77;4.53;;;5.70;75.20;;;6.03;60.76;101318.66;4993800;28;20555;-84
2021/04/22 04:33:05;;;;;;;18.90;4.57;;;5.60;75.20;;;6.00;61.01;101327.06;4993425;28;20563;-82
2021/04/22 04:35:32;;;;;;;23.08;4.93;;;5.60;75.40;;;6.02;60.58;101327.78;4994726;28;20066;-82
2021/04/22 04:37:59;;;;;;;22.08;4.82;;;5.60;75.40;;;5.98;60.99;101331.75;4994477;28;20049;-81
2021/04/22 04:40:26;;;;;;;22.20;4.55;;;5.60;75.30;;;5.99;60.41;101334.28;4994820;28;20058;-82
2021/04/22 04:42:54;;;;;;;18.83;4.82;;;5.60;75.30;;;6.00;60.91;101337.88;4993210;28;20084;-81
2021/04/22 04:45:21;;;;;;;19.95;5.10;;;5.60;75.50;;;5.91;61.12;101339.50;4994641;28;20046;-81
2021/04/22 04:47:49;;;;;;;23.98;4.97;;;5.70;75.50;;;5.92;61.39;101334.94;4994248;28;20057;-81
2021/04/22 04:50:17;;;;;;;14.57;4.90;;;5.70;75.60;;;5.96;61.42;101337.28;4994072;28;20046;-81
2021/04/22 04:52:44;;;;;;;22.70;5.45;;;5.70;75.80;;;5.98;61.78;101340.72;4993590;28;20050;-82
2021/04/22 04:55:13;;;;;;;21.10;5.63;;;5.80;76.10;;;5.96;62.37;101341.81;4993991;28;20066;-82
2021/04/22 04:57:41;;;;;;;25.65;5.45;;;5.80;76.10;;;5.99;62.82;101341.56;4994890;28;20436;-82
2021/04/22 05:00:11;;;;;;;20.30;5.53;;;5.80;76.60;;;6.01;62.47;101350.38;4994859;28;20066;-81
2021/04/22 05:02:38;;;;;;;22.80;5.22;;;5.90;76.10;;;6.06;62.33;101345.44;4992499;28;20061;-81
2021/04/22 05:05:06;;;;;;;21.83;5.88;;;6.00;75.90;;;6.20;61.87;101353.16;4993383;28;20046;-81
2021/04/22 05:07:34;;;;;;;31.10;5.28;;;6.10;76.00;;;6.25;62.15;101350.91;4993206;28;20290;-81
2021/04/22 05:10:00;;;;;;;25.55;5.65;;;6.20;76.30;;;6.31;62.45;101356.78;4993132;28;20074;-81
2021/04/22 05:12:27;;;;;;;26.15;5.60;;;6.20;76.30;;;6.31;62.19;101365.75;4993239;28;20128;-81
2021/04/22 05:14:54;;;;;;;22.00;5.47;;;6.30;76.10;;;6.43;63.50;101363.78;4992670;28;20100;-81
2021/04/22 05:17:21;;;;;;;24.65;5.32;;;6.30;76.60;;;6.43;63.72;101369.19;4994205;28;20053;-82
2021/04/22 05:19:47;;;;;;;17.25;5.30;;;6.40;77.00;;;6.52;62.40;101365.69;4993240;28;20053;-82
2021/04/22 05:22:14;;;;;;;25.77;5.70;;;6.50;76.20;;;6.54;62.68;101360.97;4993607;28;20042;-82
2021/04/22 05:24:42;;;;;;;23.42;5.65;;;6.60;76.00;;;6.56;62.24;101363.56;4992983;28;20058;-81
2021/04/22 05:27:09;;;;;;;23.30;5.93;;;6.60;75.50;;;6.62;62.66;101365.69;4992932;28;20042;-81
2021/04/22 05:29:36;;;;;;;19.27;5.22;;;6.70;75.40;;;6.68;62.63;101365.16;4993495;28;20107;-82
2021/04/22 05:32:04;;;;;;;21.70;5.70;;;6.80;75.40;;;6.81;60.84;101368.44;4993112;28;20585;-81
2021/04/22 05:34:31;;;;;;;25.35;5.70;;;6.90;73.70;;;6.92;60.38;101367.50;4992459;28;20066;-81
2021/04/22 05:36:58;;;;;;;23.08;5.28;;;7.00;72.60;;;6.96;59.91;101374.31;4993536;28;20121;-82
2021/04/22 05:39:24;;;;;;;32.47;5.97;;;7.10;72.50;;;7.02;60.04;101367.50;4993669;28;20057;-83
2021/04/22 05:41:55;;;;;;;23.27;5.53;;;7.10;72.00;;;7.05;59.66;101383.47;4993033;28;20511;-83
2021/04/22 05:44:22;;;;;;;21.98;5.40;;;7.20;71.50;;;7.04;59.61;101381.75;4992595;28;20740;-83
2021/04/22 05:46:49;;;;;;;26.88;5.72;;;7.40;71.60;;;7.05;59.98;101386.16;4992893;28;20077;-81
2021/04/22 05:49:16;;;;;;;18.73;4.90;;;7.50;71.20;;;7.09;59.37;101392.16;4992637;28;20058;-82
2021/04/22 05:51:43;;;;;;;27.30;6.05;;;7.60;70.90;;;7.15;60.16;101387.03;4993511;28;20054;-82
2021/04/22 05:54:10;;;;;;;19.92;5.55;;;7.70;70.90;;;7.17;60.08;101390.44;4991004;28;20050;-82
2021/04/22 05:56:38;;;;;;;24.20;6.50;;;7.80;70.80;;;7.23;60.03;101397.16;4996254;28;20116;-82
2021/04/22 05:59:06;;;;;;;23.92;5.90;;;7.90;70.50;;;7.29;59.74;101393.91;4997884;28;20049;-82
2021/04/22 06:01:33;;;;;;;32.85;6.38;;;8.00;70.00;;;7.35;59.74;101396.03;4995613;28;20052;-82
2021/04/22 06:04:00;;;;;;;24.13;5.25;;;8.10;69.90;;;7.40;59.33;101398.31;4996153;28;20053;-81
2021/04/22 06:06:26;;;;;;;25.02;5.47;;;8.20;69.10;;;7.48;58.66;101401.16;4996223;28;20046;-81
2021/04/22 06:08:53;;;;;;;22.15;5.35;;;8.30;68.40;;;7.56;58.55;101398.59;4996805;28;20088;-81
2021/04/22 06:11:20;;;;;;;19.23;5.32;;;8.40;67.80;;;7.57;58.43;101402.16;4997311;28;20212;-83
2021/04/22 06:13:47;;;;;;;28.13;5.47;;;8.50;67.80;;;7.64;58.22;101403.31;4996190;28;20700;-82
2021/04/22 06:16:14;;;;;;;22.35;5.57;;;8.50;67.50;;;7.69;58.62;101406.44;4996911;28;20194;-81
2021/04/22 06:18:41;;;;;;;24.52;5.40;;;8.50;67.50;;;7.76;57.92;101409.41;4996860;28;20074;-83
2021/04/22 06:21:09;;;;;;;21.75;5.55;;;8.50;67.30;;;7.81;58.29;101418.81;4996903;28;20046;-82
2021/04/22 06:23:36;;;;;;;28.13;6.18;;;8.60;67.00;;;7.88;57.18;101418.25;4996682;28;20046;-80
2021/04/22 06:26:03;;;;;;;20.20;5.32;;;8.60;66.60;;;7.93;57.19;101415.97;4996398;28;20208;-81
2021/04/22 06:28:30;;;;;;;23.40;4.45;;;8.70;66.00;;;7.97;55.63;101423.63;4996249;28;20050;-81
2021/04/22 06:30:56;;;;;;;23.70;4.30;;;8.70;64.50;;;8.00;57.22;101425.22;4989972;28;20073;-80
2021/04/22 06:33:24;;;;;;;28.98;5.13;;;8.70;65.90;;;8.01;56.29;101435.06;4992477;28;20081;-82
2021/04/22 06:35:53;;;;;;;27.20;5.15;;;8.70;65.80;;;8.03;56.40;101433.06;4991688;28;20050;-80
2021/04/22 06:38:19;;;;;;;25.35;5.40;;;8.70;66.10;;;8.05;55.92;101441.03;4989792;28;20109;-80
2021/04/22 06:40:46;;;;;;;19.08;4.50;;;8.80;65.00;;;8.08;55.15;101441.59;4993199;28;20043;-80
2021/04/22 06:43:14;;;;;;;20.70;4.22;;;8.90;64.50;;;8.14;54.55;101437.47;4994293;28;20053;-80
2021/04/22 06:45:42;;;;;;;20.92;4.47;;;8.90;62.50;;;8.14;55.10;101446.44;4994157;28;20054;-80
2021/04/22 06:48:11;;;;;;;15.70;4.03;;;9.00;63.80;;;8.18;56.09;101447.84;4994673;28;20077;-80
2021/04/22 06:50:39;;;;;;;20.58;4.78;;;9.00;64.10;;;8.22;55.21;101435.75;4993467;28;20076;-80
2021/04/22 06:53:06;;;;;;;20.63;4.88;;;9.00;64.20;;;8.24;56.01;101443.72;4992830;28;20050;-80
2021/04/22 06:55:33;;;;;;;18.02;4.95;;;9.10;64.30;;;8.28;55.70;101446.97;4993679;28;20709;-81
2021/04/22 06:58:04;;;;;;;18.88;4.25;;;9.10;63.80;;;8.33;54.77;101450.97;4993250;28;20053;-81
2021/04/22 07:00:35;;;;;;;20.98;4.35;;;9.10;62.50;;;8.36;54.42;101449.84;4993852;28;20046;-80
2021/04/22 07:03:02;;;;;;;;;;;9.00;62.90;;;8.34;55.00;101457.25;4991864;28;20077;-80
2021/04/22 07:05:29;;;;;;;17.00;4.07;;;9.10;63.60;;;8.32;55.89;101461.97;4986437;28;19925;-79
2021/04/22 07:07:57;;;;;;;18.40;4.55;;;9.10;64.50;;;8.29;55.20;101457.69;4992407;28;20057;-80
2021/04/22 07:10:24;;;;;;;25.85;4.53;;;9.10;63.60;;;8.34;55.51;101462.66;4981147;28;20054;-80
2021/04/22 07:12:51;;;;;;;22.80;4.30;;;9.10;63.70;;;8.32;54.53;101462.84;4991352;28;20511;-80
2021/04/22 07:15:18;;;;;;;21.88;3.90;;;9.20;63.00;;;8.43;53.71;101460.97;4991859;28;20105;-80
2021/04/22 07:17:46;;;;;;;19.27;4.03;;;9.30;61.00;;;8.46;54.16;101468.81;4993805;28;20053;-80
2021/04/22 07:20:17;;;;;;;19.55;4.70;;;9.40;61.60;;;8.51;54.04;101467.38;4991892;28;20452;-80
2021/04/22 07:22:44;;;;;;;14.77;3.80;;;9.50;61.30;;;8.54;54.17;101477.06;4989505;28;20132;-80
2021/04/22 07:25:15;;;;;;;15.60;3.75;;;9.50;61.50;;;8.59;54.74;101485.63;4990468;28;20133;-80
2021/04/22 07:27:43;;;;;;;19.27;4.43;;;9.60;61.90;;;8.65;54.49;101481.47;4992761;28;20046;-80
2021/04/22 07:30:11;;;;;;;19.35;3.80;;;9.70;61.60;;;8.68;53.37;101483.88;4993346;28;20043;-80
2021/04/22 07:32:39;;;;;;;16.20;3.13;;;9.80;60.00;;;8.73;52.33;101484.28;4992244;28;20042;-80
2021/04/22 07:35:08;;;;;;;21.20;4.03;;;9.80;58.10;;;8.77;51.63;101485.69;4992819;28;20116;-79
2021/04/22 07:37:34;;;;;;;12.27;2.85;;;9.80;58.30;;;8.78;52.31;101492.84;4993415;28;20121;-79
2021/04/22 07:40:01;;;;;;;10.93;3.00;;;9.80;58.10;;;8.77;50.79;101491.13;4990750;28;20044;-79
2021/04/22 07:42:29;;;;;;;12.65;3.50;;;9.70;57.10;;;8.81;51.86;101489.81;4993360;28;20050;-78
2021/04/22 07:44:56;;;;;;;14.85;3.33;;;9.70;58.30;;;8.85;52.60;101498.53;4992786;28;20774;-78
2021/04/22 07:47:23;;;;;;;10.63;2.97;;;9.70;59.90;;;8.86;52.58;101487.53;4990926;28;20250;-79
2021/04/22 07:49:50;;;;;;;13.00;3.40;;;9.80;58.40;;;8.90;51.71;101485.38;4989402;28;20074;-80
2021/04/22 07:52:16;;;;;;;13.60;3.33;;;9.80;58.20;;;8.85;49.66;101493.94;4991816;28;20474;-79
2021/04/22 07:54:44;;;;;;;12.60;2.80;;;9.70;56.50;;;8.86;49.77;101494.81;4991491;28;20061;-79
2021/04/22 07:57:11;;;;;;;12.73;3.33;;;9.70;57.70;;;8.90;50.32;101488.94;4993781;28;20503;-79
2021/04/22 07:59:39;;;;;;;13.25;3.55;;;9.80;57.00;;;8.95;51.01;101493.94;4994414;28;20042;-79
2021/04/22 08:02:07;;;;;;;14.50;3.58;;;9.80;58.40;;;9.00;52.17;101492.47;4993812;28;20042;-80
2021/04/22 08:04:35;;;;;;;16.83;3.60;;;9.90;58.20;;;9.00;51.62;101503.34;4990017;28;20826;-80
2021/04/22 08:07:02;;;;;;;17.48;4.20;;;9.90;57.90;;;8.99;50.91;101496.19;4984984;28;20046;-80
2021/04/22 08:09:29;;;;;;;11.15;3.22;;;10.00;57.90;;;9.06;51.78;101496.41;4992184;28;20073;-79
2021/04/22 08:11:56;;;;;;;19.52;4.13;;;10.10;57.20;;;9.14;50.72;101490.25;4993507;28;20077;-80
2021/04/22 08:14:22;;;;;;;13.48;3.35;;;10.10;55.90;;;9.18;49.95;101494.38;4993052;28;20049;-79
2021/04/22 08:16:50;;;;;;;17.13;2.90;;;10.10;55.40;;;9.24;50.96;101493.78;4991547;28;20146;-79
2021/04/22 08:19:17;;;;;;;15.50;2.70;;;10.20;57.10;;;9.28;50.21;101495.16;4993731;28;20058;-79
2021/04/22 08:21:44;;;;;;;10.80;2.92;;;10.20;56.40;;;9.29;50.46;101485.16;4989436;28;20526;-79
2021/04/22 08:24:11;;;;;;;13.05;3.03;;;10.20;56.60;;;9.31;49.65;101492.16;4996558;28;20066;-79
2021/04/22 08:26:38;;;;;;;14.68;3.13;;;10.20;55.70;;;9.27;48.40;101487.16;4999355;28;20042;-80
2021/04/22 08:29:05;;;;;;;11.07;2.88;;;10.30;54.20;;;9.37;51.89;101496.13;4995690;28;20047;-80
2021/04/22 08:31:32;;;;;;;15.48;3.20;;;10.40;57.10;;;9.43;50.67;101486.50;4996045;28;20046;-80
2021/04/22 08:34:03;;;;;;;15.80;3.90;;;10.60;56.60;;;9.39;49.48;101496.81;4995302;28;20093;-80
2021/04/22 08:36:31;;;;;;;13.07;3.67;;;10.50;54.40;;;9.41;49.45;101493.97;5001077;28;20597;-80
2021/04/22 08:38:57;;;;;;;17.52;3.67;;;10.50;55.00;;;9.39;48.82;101500.41;4994947;28;20042;-80
2021/04/22 08:41:24;;;;;;;12.90;3.45;;;10.60;54.30;;;9.47;49.36;101493.34;4994510;28;20137;-80
2021/04/22 08:43:52;;;;;;;15.15;3.20;;;10.60;54.70;;;9.51;49.20;101497.47;4994647;28;20061;-79
2021/04/22 08:46:21;;;;;;;13.73;3.72;;;10.70;54.10;;;9.55;48.59;101496.13;4995623;28;20771;-80
2021/04/22 08:48:48;;;;;;;12.85;3.22;;;10.70;53.30;;;9.56;47.95;101495.16;4991840;28;20069;-80
2021/04/22 08:51:16;;;;;;;16.33;3.22;;;10.70;53.10;;;9.57;48.60;101494.13;4993199;28;20562;-79
2021/04/22 08:53:46;;;;;;;14.90;3.85;;;10.60;53.90;;;9.64;50.87;101497.09;4992853;28;20038;-80
2021/04/22 08:56:16;;;;;;;20.38;4.75;;;10.70;56.00;;;9.68;49.16;101496.63;4991397;28;20057;-80
2021/04/22 08:58:43;;;;;;;16.27;3.45;;;10.70;54.20;;;9.65;48.15;101496.91;4991655;28;20089;-80
2021/04/22 09:01:12;;;;;;;14.75;3.42;;;10.60;53.20;;;9.66;48.25;101493.19;4991503;28;20046;-80
2021/04/22 09:03:41;;;;;;;14.82;3.40;;;10.60;53.10;;;9.66;47.92;101495.91;4992206;28;20034;-80
2021/04/22 09:06:08;;;;;;;18.95;3.78;;;10.60;53.20;;;9.70;48.18;101493.75;4992582;28;20077;-80
2021/04/22 09:08:44;;;;;;;13.07;3.03;;;10.60;53.70;;;9.70;48.56;101499.19;4994913;28;20039;-80
2021/04/22 09:11:14;;;;;;;17.17;3.60;;;10.70;53.40;;;9.75;48.56;101492.28;4994142;28;20069;-80
2021/04/22 09:13:41;;;;;;;9.90;3.22;;;10.80;53.30;;;9.76;48.93;101493.97;4993819;28;20038;-80
2021/04/22 09:16:11;;;;;;;11.13;4.18;;;10.80;53.80;;;9.79;48.68;101500.97;4995109;28;20128;-81
2021/04/22 09:18:41;;;;;;;16.48;3.92;;;10.70;54.10;;;9.78;48.09;101505.53;4994520;28;20101;-80
2021/04/22 09:21:19;;;;;;;12.70;4.13;;;10.80;53.30;;;9.81;48.57;101503.56;4994465;28;20047;-80
2021/04/22 09:23:59;;;;;;;17.10;4.68;;;10.80;54.20;;;9.85;48.92;101507.66;4985289;28;20054;-81
2021/04/22 09:26:43;;;;;;;20.58;4.55;;;10.90;54.30;;;9.87;49.21;101511.91;4989026;28;20046;-81
2021/04/22 09:29:17;;;;;;;15.10;3.95;;;10.90;54.90;;;9.96;50.12;101507.44;4985879;28;20092;-81
2021/04/22 09:31:44;;;;;;;13.63;4.75;;;11.10;55.80;;;10.02;50.59;101506.78;4992747;28;20050;-81
2021/04/22 09:34:14;;;;;;;15.18;4.78;;;11.30;55.30;;;10.01;50.61;101502.34;4991582;28;20061;-80
2021/04/22 09:36:46;;;;;;;25.23;5.03;;;11.30;55.70;;;10.07;50.10;101507.19;5009546;28;20077;-80
2021/04/22 09:39:20;;;;;;;12.68;4.63;;;11.30;54.70;;;10.07;50.40;101506.31;4994190;28;20093;-80
2021/04/22 09:41:50;;;;;;;17.40;4.00;;;11.30;55.30;;;10.05;49.48;101503.78;4994499;28;20054;-80
2021/04/22 09:44:19;;;;;;;18.65;5.28;;;11.30;54.40;;;10.04;49.74;101498.50;4992043;28;20050;-80
2021/04/22 09:46:48;;;;;;;17.10;4.82;;;11.20;55.30;;;10.02;49.24;101493.19;4994083;28;20046;-80
2021/04/22 09:49:18;;;;;;;14.48;4.30;;;11.10;54.30;;;10.07;49.94;101496.31;4994020;28;20042;-80
2021/04/22 09:51:48;;;;;;;13.18;4.15;;;11.20;55.30;;;10.11;49.09;101499.53;4991529;28;20050;-80
2021/04/22 09:54:18;;;;;;;15.63;4.07;;;11.20;54.00;;;10.13;48.57;101490.22;4990892;28;20054;-80
2021/04/22 09:56:50;;;;;;;14.85;3.60;;;11.20;53.50;;;10.16;47.87;101492.63;4993186;28;20092;-80
2021/04/22 09:59:19;;;;;;;;;;;11.20;52.60;;;10.11;47.06;101496.81;4994276;28;20045;-80
2021/04/22 10:01:48;;;;;;;14.90;4.45;;;11.20;53.50;;;10.15;48.72;101499.09;4993852;28;20283;-80
2021/04/22 10:04:17;;;;;;;14.32;3.55;;;11.20;54.00;;;10.16;47.92;101500.78;4993443;28;20065;-80
2021/04/22 10:06:45;;;;;;;14.07;3.55;;;11.30;53.10;;;10.20;48.46;101492.31;4993937;28;20057;-80
2021/04/22 10:09:12;;;;;;;15.02;4.05;;;11.30;53.90;;;10.24;47.90;101488.25;4993705;28;20074;-80
2021/04/22 10:11:49;;;;;;;12.23;4.10;;;11.40;52.70;;;10.25;47.75;101487.25;4994143;28;20045;-80
2021/04/22 10:14:31;;;;;;;16.02;3.97;;;11.30;53.00;;;10.23;47.16;101484.69;4992461;28;20166;-80
2021/04/22 10:16:59;;;;;;;15.15;3.75;;;11.20;53.20;;;10.28;47.28;101486.94;4993883;28;20054;-80
2021/04/22 10:19:26;;;;;;;17.13;3.92;;;11.30;52.90;;;10.31;47.51;101483.94;4990754;28;20570;-80
2021/04/22 10:21:52;;;;;;;22.08;4.43;;;11.40;53.40;;;10.35;48.65;101483.44;4991682;28;20039;-82